Time;durP1;ratioP1;P1;durP2;ratioP2;P2;SDS_P1;SDS_P2;PMS_P1;PMS_P2;Temp;Humidity;BMP_temperature;BMP_pressure;BME280_temperature;BME280_humidity;BME280_pressure;Samples;Min_cycle;Max_cycle;Signal;HPM_P1;HPM_P2
2023/01/29 00:02:32;;;;;;;16.30;8.45;;;4.20;99.90;;;;;;5072714;28;20044;-74
2023/01/29 00:05:00;;;;;;;19.88;10.52;;;4.20;99.90;;;;;;5072961;28;20044;-74
2023/01/29 00:07:29;;;;;;;19.35;8.95;;;4.30;99.90;;;;;;5072537;28;20040;-74
2023/01/29 00:09:54;;;;;;;15.82;7.90;;;4.20;99.90;;;;;;5072490;28;20067;-74
2023/01/29 00:12:20;;;;;;;19.08;8.40;;;4.30;99.90;;;;;;5072480;28;20036;-74
2023/01/29 00:14:46;;;;;;;19.35;9.07;;;4.20;99.90;;;;;;5072547;28;20051;-74
2023/01/29 00:17:11;;;;;;;17.55;8.95;;;4.20;99.90;;;;;;5073809;28;20040;-74
2023/01/29 00:19:37;;;;;;;20.42;9.25;;;4.20;99.90;;;;;;5073659;28;20044;-74
2023/01/29 00:22:03;;;;;;;17.77;8.80;;;4.10;99.90;;;;;;5072306;28;20047;-74
2023/01/29 00:24:28;;;;;;;18.33;9.02;;;4.10;99.90;;;;;;5072334;28;20052;-74
2023/01/29 00:26:54;;;;;;;22.20;10.45;;;4.10;99.90;;;;;;5072630;28;20045;-74
2023/01/29 00:29:20;;;;;;;17.42;8.68;;;4.20;99.90;;;;;;5072115;28;20476;-74
2023/01/29 00:31:49;;;;;;;19.42;9.68;;;4.10;99.90;;;;;;5072434;28;20047;-74
2023/01/29 00:34:15;;;;;;;19.98;9.98;;;4.20;99.90;;;;;;5072529;28;20036;-74
2023/01/29 00:36:43;;;;;;;21.25;10.38;;;4.20;99.90;;;;;;5072231;28;20044;-74
2023/01/29 00:39:11;;;;;;;24.13;10.60;;;4.10;99.90;;;;;;5073519;28;20087;-74
2023/01/29 00:50:05;;;;;;;24.92;10.65;;;4.10;99.90;;;;;;5072068;28;20053;-74
2023/01/29 00:52:30;;;;;;;24.67;10.73;;;4.10;99.90;;;;;;5072490;28;20048;-74
2023/01/29 00:55:00;;;;;;;19.35;10.55;;;4.00;99.90;;;;;;5072157;28;20442;-74
2023/01/29 00:57:28;;;;;;;20.75;10.02;;;4.10;99.90;;;;;;5072042;28;20037;-74
2023/01/29 00:59:54;;;;;;;23.92;11.77;;;4.00;99.90;;;;;;5072080;28;20044;-74
2023/01/29 01:05:06;;;;;;;23.77;11.55;;;4.10;99.90;;;;;;5072215;28;20412;-74
2023/01/29 01:07:32;;;;;;;22.50;11.25;;;4.10;99.90;;;;;;5076336;28;20125;-74
2023/01/29 01:12:43;;;;;;;21.85;11.18;;;4.10;99.90;;;;;;5075855;28;20396;-74
2023/01/29 01:15:09;;;;;;;23.23;10.95;;;4.10;99.90;;;;;;5077058;28;20480;-74
2023/01/29 01:17:35;;;;;;;22.95;11.80;;;4.20;99.90;;;;;;5076079;28;20055;-74
2023/01/29 01:20:01;;;;;;;23.33;10.80;;;4.20;99.90;;;;;;5077048;28;20115;-74
2023/01/29 01:22:26;;;;;;;26.67;13.18;;;4.10;99.90;;;;;;5075496;28;20484;-74
2023/01/29 01:24:52;;;;;;;21.42;11.15;;;4.20;99.90;;;;;;5076995;28;20043;-74
2023/01/29 01:27:18;;;;;;;23.38;12.20;;;4.20;99.90;;;;;;5075400;28;20101;-74
2023/01/29 01:29:45;;;;;;;26.27;12.98;;;4.20;99.90;;;;;;5075643;28;20048;-74
2023/01/29 01:32:14;;;;;;;25.88;12.55;;;4.10;99.90;;;;;;5075849;28;20113;-74
2023/01/29 01:34:40;;;;;;;25.23;12.25;;;4.10;99.90;;;;;;5075470;28;20117;-74
2023/01/29 01:37:06;;;;;;;25.65;12.52;;;4.10;99.90;;;;;;5076579;28;20468;-74
2023/01/29 01:39:32;;;;;;;28.48;13.48;;;4.20;99.90;;;;;;5076720;28;20045;-74
2023/01/29 01:41:57;;;;;;;27.48;12.93;;;4.10;99.90;;;;;;5075313;28;20541;-74
2023/01/29 01:45:11;;;;;;;26.77;13.07;;;4.20;99.90;;;;;;5075241;28;20080;-74
2023/01/29 01:47:40;;;;;;;;;;;4.20;99.90;;;;;;5062779;28;20058;-74
2023/01/29 01:50:57;;;;;;;28.25;13.27;;;4.10;99.90;;;;;;5075135;28;19951;-74
2023/01/29 01:53:33;;;;;;;31.25;14.77;;;4.10;99.90;;;;;;5052326;28;20053;-74
2023/01/29 01:56:03;;;;;;;27.25;13.02;;;4.10;99.90;;;;;;5075047;28;20044;-74
2023/01/29 01:58:49;;;;;;;29.83;13.35;;;4.10;99.90;;;;;;5075279;28;20533;-74
2023/01/29 02:01:16;;;;;;;32.95;14.15;;;4.20;99.90;;;;;;5075134;28;20048;-74
2023/01/29 02:09:37;;;;;;;34.85;16.23;;;4.20;99.90;;;;;;5076283;28;20484;-74
2023/01/29 02:12:32;;;;;;;37.38;16.15;;;4.20;99.90;;;;;;5074869;28;20119;-74
2023/01/29 02:15:02;;;;;;;37.17;16.02;;;4.30;99.90;;;;;;5067064;28;20079;-74
2023/01/29 02:17:27;;;;;;;46.22;17.73;;;4.20;99.90;;;;;;5074069;28;20044;-74
2023/01/29 02:20:12;;;;;;;37.88;18.77;;;4.20;99.90;;;;;;5074507;28;20048;-74
2023/01/29 02:22:55;;;;;;;41.53;17.17;;;4.30;99.90;;;;;;5074439;28;20083;-74
2023/01/29 02:25:20;;;;;;;40.35;16.55;;;4.30;99.90;;;;;;5074490;28;20052;-74
2023/01/29 02:27:58;;;;;;;41.67;17.63;;;4.30;99.90;;;;;;5074395;28;20078;-74
2023/01/29 02:30:36;;;;;;;41.22;18.83;;;4.20;99.90;;;;;;5074424;28;20140;-74
2023/01/29 02:33:23;;;;;;;43.70;18.10;;;4.30;99.90;;;;;;5074447;28;20131;-74
2023/01/29 02:36:15;;;;;;;47.42;17.73;;;4.20;99.90;;;;;;5074531;28;20095;-75
2023/01/29 02:39:08;;;;;;;46.25;19.30;;;4.30;99.90;;;;;;5074608;28;20526;-74
2023/01/29 02:41:48;;;;;;;42.83;19.98;;;4.30;99.90;;;;;;5074250;28;20044;-74
2023/01/29 02:44:26;;;;;;;47.17;19.42;;;4.30;99.90;;;;;;5074444;28;20418;-74
2023/01/29 02:47:04;;;;;;;46.58;17.90;;;4.20;99.90;;;;;;5074323;28;20127;-74
2023/01/29 02:49:47;;;;;;;47.53;19.60;;;4.30;99.90;;;;;;5074264;28;20048;-74
2023/01/29 02:52:25;;;;;;;47.00;19.50;;;4.20;99.90;;;;;;5074231;28;20067;-74
2023/01/29 02:55:06;;;;;;;54.45;21.63;;;4.30;99.90;;;;;;5074334;28;20048;-74
2023/01/29 02:57:36;;;;;;;49.25;20.95;;;4.20;99.90;;;;;;5074069;28;20052;-74
2023/01/29 03:00:23;;;;;;;52.05;19.17;;;4.20;99.90;;;;;;5073946;28;20127;-74
2023/01/29 03:03:05;;;;;;;43.92;18.40;;;4.20;99.90;;;;;;5073806;28;20056;-74
2023/01/29 03:05:49;;;;;;;43.17;18.05;;;4.10;99.90;;;;;;5074043;28;20115;-74
2023/01/29 03:08:35;;;;;;;42.85;17.30;;;4.20;99.90;;;;;;5074959;28;20052;-74
2023/01/29 03:11:03;;;;;;;;;;;4.20;99.90;;;;;;5074082;28;20115;-74
2023/01/29 03:13:47;;;;;;;39.40;16.58;;;4.10;99.90;;;;;;5073588;28;20005;-74
2023/01/29 03:16:19;;;;;;;44.75;18.30;;;4.10;99.90;;;;;;5073637;28;20053;-74
2023/01/29 03:18:52;;;;;;;48.78;20.23;;;4.10;99.90;;;;;;5073846;28;20043;-74
2023/01/29 03:33:57;;;;;;;45.65;17.27;;;4.10;99.90;;;;;;5074286;28;20048;-74
2023/01/29 03:36:38;;;;;;;45.70;18.40;;;4.20;99.90;;;;;;5074542;28;20068;-74
2023/01/29 03:39:10;;;;;;;41.95;17.38;;;4.20;99.90;;;;;;5073409;28;20361;-74
2023/01/29 03:41:53;;;;;;;52.03;18.88;;;4.10;99.90;;;;;;5073035;28;20498;-74
2023/01/29 03:44:39;;;;;;;49.40;19.60;;;4.20;99.90;;;;;;5073347;28;20067;-74
2023/01/29 03:47:21;;;;;;;52.15;19.02;;;4.00;99.90;;;;;;5073029;28;20049;-74
2023/01/29 03:49:55;;;;;;;49.72;19.27;;;4.20;99.90;;;;;;5072999;28;20055;-74
2023/01/29 03:52:46;;;;;;;50.08;20.10;;;4.10;99.90;;;;;;5073566;28;20083;-74
2023/01/29 03:55:15;;;;;;;51.97;19.58;;;4.10;99.90;;;;;;5072878;28;20123;-74
2023/01/29 03:58:15;;;;;;;59.47;20.83;;;4.10;99.90;;;;;;5072790;28;20048;-74
2023/01/29 04:00:48;;;;;;;48.17;20.02;;;4.10;99.90;;;;;;5072897;28;20101;-74
2023/01/29 04:03:21;;;;;;;;;;;4.10;99.90;;;;;;5074603;28;20050;-74
2023/01/29 04:06:04;;;;;;;56.30;21.67;;;4.10;99.90;;;;;;5072962;28;19920;-74
2023/01/29 04:08:45;;;;;;;54.88;19.88;;;4.10;99.90;;;;;;5072679;28;20044;-74
2023/01/29 04:11:14;;;;;;;50.28;19.13;;;4.10;99.90;;;;;;5072735;28;20392;-74
2023/01/29 04:13:41;;;;;;;56.38;20.80;;;4.20;99.90;;;;;;5072716;28;20041;-74
2023/01/29 04:16:12;;;;;;;57.50;20.63;;;4.20;99.90;;;;;;5072581;28;20049;-74
2023/01/29 04:18:44;;;;;;;53.35;21.58;;;4.10;99.90;;;;;;5072564;28;20044;-74
2023/01/29 04:21:10;;;;;;;52.92;22.17;;;4.20;99.90;;;;;;5072728;28;20094;-74
2023/01/29 04:23:36;;;;;;;57.05;22.15;;;4.20;99.90;;;;;;5072336;28;20048;-74
2023/01/29 04:26:27;;;;;;;57.35;22.25;;;4.20;99.90;;;;;;5072577;28;20040;-74
2023/01/29 04:28:57;;;;;;;54.85;23.08;;;4.20;99.90;;;;;;5072169;28;20062;-74
2023/01/29 04:31:34;;;;;;;55.67;21.83;;;4.20;99.90;;;;;;5072440;28;20075;-74
2023/01/29 04:34:21;;;;;;;57.63;21.15;;;4.30;99.90;;;;;;5072660;28;20094;-74
2023/01/29 04:37:12;;;;;;;55.58;21.02;;;4.30;99.90;;;;;;5072327;28;20044;-74
2023/01/29 04:39:37;;;;;;;52.45;20.50;;;4.30;99.90;;;;;;5072637;28;20502;-74
2023/01/29 04:42:21;;;;;;;52.00;21.52;;;4.20;99.90;;;;;;5072311;28;20120;-74
2023/01/29 04:44:56;;;;;;;58.05;21.45;;;4.30;99.90;;;;;;5072133;28;20483;-74
2023/01/29 04:48:03;;;;;;;59.50;22.52;;;4.30;99.90;;;;;;5072236;28;20115;-74
2023/01/29 04:50:39;;;;;;;56.88;22.58;;;4.20;99.90;;;;;;5051980;28;20060;-74
2023/01/29 04:53:24;;;;;;;57.70;22.70;;;4.20;99.90;;;;;;5072036;28;20506;-74
2023/01/29 04:56:32;;;;;;;63.78;23.92;;;4.20;99.90;;;;;;5072174;28;20051;-74
2023/01/29 04:59:03;;;;;;;56.17;22.42;;;4.40;99.90;;;;;;5072411;28;20044;-74
2023/01/29 05:01:32;;;;;;;57.38;22.58;;;4.20;99.90;;;;;;5072065;28;20044;-74
2023/01/29 05:04:02;;;;;;;61.97;23.10;;;4.30;99.90;;;;;;5072278;28;20048;-74
2023/01/29 05:06:30;;;;;;;56.97;22.60;;;4.20;99.90;;;;;;5073435;28;20082;-74
2023/01/29 05:08:56;;;;;;;57.67;22.98;;;4.20;99.90;;;;;;5071942;28;20041;-74
2023/01/29 05:11:23;;;;;;;62.67;22.58;;;4.20;99.90;;;;;;5072272;28;20048;-74
2023/01/29 05:13:50;;;;;;;63.67;23.55;;;4.20;99.90;;;;;;5071882;28;20052;-74
2023/01/29 05:16:25;;;;;;;66.68;24.98;;;4.20;99.90;;;;;;5071887;28;20048;-74
2023/01/29 05:18:50;;;;;;;67.55;23.17;;;4.20;99.90;;;;;;5072209;28;20055;-74
2023/01/29 05:21:17;;;;;;;65.85;25.75;;;4.20;99.90;;;;;;5071941;28;20364;-74
2023/01/29 05:23:51;;;;;;;64.95;23.00;;;4.20;99.90;;;;;;5072176;28;20047;-74
2023/01/29 05:29:04;;;;;;;61.13;23.20;;;4.20;99.90;;;;;;5072846;28;20452;-74
2023/01/29 05:31:30;;;;;;;62.13;22.80;;;4.30;99.90;;;;;;5071679;28;20084;-74
2023/01/29 05:33:56;;;;;;;64.07;23.23;;;4.20;99.90;;;;;;5071967;28;20056;-74
2023/01/29 05:36:21;;;;;;;64.82;23.85;;;4.20;99.90;;;;;;5071722;28;20052;-74
2023/01/29 05:38:47;;;;;;;63.58;24.95;;;4.20;99.90;;;;;;5071680;28;20476;-74
2023/01/29 05:41:13;;;;;;;67.25;23.48;;;4.30;99.90;;;;;;5071938;28;20045;-74
2023/01/29 05:43:38;;;;;;;69.28;24.90;;;4.30;99.90;;;;;;5071931;28;20056;-75
2023/01/29 05:46:07;;;;;;;67.82;26.40;;;4.20;99.90;;;;;;5072885;28;20047;-74
2023/01/29 05:48:33;;;;;;;78.40;24.90;;;4.20;99.90;;;;;;5071394;28;20048;-74
2023/01/29 05:51:00;;;;;;;67.85;23.80;;;4.30;99.90;;;;;;5071431;28;20063;-74
2023/01/29 05:53:28;;;;;;;72.80;25.40;;;4.30;99.90;;;;;;5073982;28;20048;-74
2023/01/29 05:55:56;;;;;;;73.95;26.73;;;4.20;99.90;;;;;;5075311;28;20072;-74
2023/01/29 05:58:21;;;;;;;72.78;26.20;;;4.10;99.90;;;;;;5075059;28;20055;-74
2023/01/29 06:00:47;;;;;;;71.60;26.60;;;4.10;99.90;;;;;;5075078;28;20044;-74
2023/01/29 06:03:13;;;;;;;70.65;25.75;;;4.10;99.90;;;;;;5075219;28;20041;-74
2023/01/29 06:05:39;;;;;;;74.32;27.25;;;4.10;99.90;;;;;;5075025;28;20083;-74
2023/01/29 06:08:06;;;;;;;75.10;27.88;;;4.30;99.90;;;;;;5074817;28;20040;-74
2023/01/29 06:10:31;;;;;;;69.00;26.08;;;4.10;99.90;;;;;;5074705;28;20045;-74
2023/01/29 06:12:57;;;;;;;74.30;27.38;;;4.10;99.90;;;;;;5074803;28;20036;-74
2023/01/29 06:15:25;;;;;;;61.55;23.13;;;4.00;99.90;;;;;;5074799;28;20044;-74
2023/01/29 06:17:52;;;;;;;71.20;25.42;;;4.10;99.90;;;;;;5074757;28;20044;-74
2023/01/29 06:20:18;;;;;;;63.92;23.67;;;4.20;99.90;;;;;;5074806;28;20056;-74
2023/01/29 06:22:44;;;;;;;65.97;24.40;;;4.20;99.90;;;;;;5074529;28;20049;-74
2023/01/29 06:25:12;;;;;;;63.30;24.52;;;4.00;99.90;;;;;;5074807;28;20052;-74
2023/01/29 06:27:38;;;;;;;70.20;24.48;;;4.10;99.90;;;;;;5074346;28;20060;-74
2023/01/29 06:30:04;;;;;;;61.45;22.50;;;4.20;99.90;;;;;;5074566;28;20049;-74
2023/01/29 06:32:33;;;;;;;58.30;22.05;;;4.10;99.90;;;;;;5074483;28;20075;-74
2023/01/29 06:34:58;;;;;;;55.40;22.85;;;4.30;99.90;;;;;;5074579;28;20049;-74
2023/01/29 06:37:24;;;;;;;54.75;21.45;;;4.30;99.90;;;;;;5074300;28;20480;-74
2023/01/29 06:39:50;;;;;;;59.05;22.83;;;4.20;99.90;;;;;;5074583;28;20048;-74
2023/01/29 06:42:19;;;;;;;56.95;22.75;;;4.20;99.90;;;;;;5073649;28;20080;-74
2023/01/29 06:44:45;;;;;;;55.92;22.25;;;4.20;99.90;;;;;;5074344;28;20059;-74
2023/01/29 06:47:10;;;;;;;54.05;20.70;;;4.30;99.90;;;;;;5074004;28;20040;-74
2023/01/29 06:49:36;;;;;;;59.17;21.98;;;4.20;99.90;;;;;;5076086;28;20048;-74
2023/01/29 06:52:01;;;;;;;52.70;21.85;;;4.20;99.90;;;;;;5073904;28;20544;-74
2023/01/29 06:54:28;;;;;;;57.42;22.35;;;4.20;99.90;;;;;;5074041;28;20045;-74
2023/01/29 06:56:55;;;;;;;55.15;21.50;;;4.20;99.90;;;;;;5075281;28;20063;-74
2023/01/29 06:59:20;;;;;;;57.35;22.70;;;4.20;99.90;;;;;;5073978;28;20059;-74
2023/01/29 07:01:46;;;;;;;57.03;23.75;;;4.20;99.90;;;;;;5075139;28;20032;-74
2023/01/29 07:04:11;;;;;;;59.08;24.02;;;4.30;99.90;;;;;;5073884;28;20045;-73
2023/01/29 07:06:37;;;;;;;56.55;21.98;;;4.20;99.90;;;;;;5073751;28;20469;-74
2023/01/29 07:09:03;;;;;;;62.15;24.10;;;4.20;99.90;;;;;;5073626;28;20529;-74
2023/01/29 07:11:29;;;;;;;62.10;24.80;;;4.30;99.90;;;;;;5073741;28;20052;-74
2023/01/29 07:13:55;;;;;;;58.20;23.05;;;4.30;99.90;;;;;;5073960;28;20037;-74
2023/01/29 07:16:20;;;;;;;53.85;22.77;;;4.10;99.90;;;;;;5073472;28;20082;-74
2023/01/29 07:18:46;;;;;;;64.78;24.25;;;4.20;99.90;;;;;;5073455;28;20045;-74
2023/01/29 07:21:11;;;;;;;62.08;24.20;;;4.10;99.90;;;;;;5074751;28;20086;-74
2023/01/29 07:23:37;;;;;;;63.60;23.95;;;4.10;99.90;;;;;;5074662;28;20110;-74
2023/01/29 07:26:04;;;;;;;71.95;27.05;;;4.10;99.90;;;;;;5073555;28;20040;-74
2023/01/29 07:28:31;;;;;;;72.38;26.50;;;4.20;99.90;;;;;;5072757;28;20461;-74
2023/01/29 07:30:59;;;;;;;71.22;25.60;;;4.10;99.90;;;;;;5073153;28;20072;-74
2023/01/29 07:33:25;;;;;;;71.75;26.42;;;4.20;99.90;;;;;;5072127;28;20131;-74
2023/01/29 07:35:51;;;;;;;77.30;30.08;;;4.20;99.90;;;;;;5072791;28;20551;-74
2023/01/29 07:38:17;;;;;;;68.50;25.25;;;4.10;99.90;;;;;;5073002;28;20040;-74
2023/01/29 07:40:43;;;;;;;76.03;28.10;;;4.10;99.90;;;;;;5074420;28;20475;-74
2023/01/29 07:43:09;;;;;;;71.43;28.17;;;4.20;99.90;;;;;;5072777;28;20044;-75
2023/01/29 07:45:39;;;;;;;77.35;28.30;;;4.20;99.90;;;;;;5072760;28;20040;-75
2023/01/29 07:48:06;;;;;;;79.95;29.90;;;4.20;99.90;;;;;;5074244;28;20044;-74
2023/01/29 07:50:33;;;;;;;76.55;28.88;;;4.10;99.90;;;;;;5072693;28;20377;-74
2023/01/29 07:53:03;;;;;;;77.47;29.85;;;4.10;99.90;;;;;;5072624;28;20045;-74
2023/01/29 07:55:29;;;;;;;74.03;29.67;;;4.20;99.90;;;;;;5073856;28;20040;-74
2023/01/29 07:57:57;;;;;;;73.28;29.98;;;4.20;99.90;;;;;;5072556;28;20052;-75
2023/01/29 08:00:25;;;;;;;78.75;30.13;;;4.10;99.90;;;;;;5072764;28;20145;-75
2023/01/29 08:02:51;;;;;;;78.38;30.13;;;4.10;99.90;;;;;;5072639;28;20147;-74
2023/01/29 08:05:17;;;;;;;82.78;30.38;;;4.30;99.90;;;;;;5072747;28;20145;-74
2023/01/29 08:07:42;;;;;;;75.88;29.70;;;4.20;99.90;;;;;;5072363;28;20114;-75
2023/01/29 08:10:10;;;;;;;72.55;29.23;;;4.10;99.90;;;;;;5072379;28;20049;-74
2023/01/29 08:12:36;;;;;;;78.15;30.10;;;4.10;99.90;;;;;;5072273;28;20487;-74
2023/01/29 08:15:08;;;;;;;85.43;32.50;;;4.20;99.90;;;;;;5072049;28;20056;-74
2023/01/29 08:17:34;;;;;;;67.33;28.70;;;4.20;99.90;;;;;;5072619;28;20036;-74
2023/01/29 08:19:59;;;;;;;83.63;32.50;;;4.30;99.90;;;;;;5072517;28;20133;-74
2023/01/29 08:22:28;;;;;;;80.00;28.98;;;4.20;99.90;;;;;;5072561;28;20128;-74
2023/01/29 08:24:54;;;;;;;87.68;31.20;;;4.30;99.90;;;;;;5072469;28;20048;-75
2023/01/29 08:27:22;;;;;;;91.85;32.97;;;4.40;99.90;;;;;;5071871;28;20048;-74
2023/01/29 08:29:48;;;;;;;92.28;31.02;;;4.30;99.90;;;;;;5065173;28;20120;-74
2023/01/29 08:32:14;;;;;;;84.88;31.35;;;4.40;99.90;;;;;;5053201;28;20051;-73
2023/01/29 08:34:39;;;;;;;80.45;30.83;;;4.30;99.90;;;;;;5051941;28;20208;-75
2023/01/29 08:37:05;;;;;;;81.22;30.33;;;4.40;99.90;;;;;;5056660;28;20476;-73
2023/01/29 08:39:30;;;;;;;84.72;32.70;;;4.40;99.90;;;;;;5069748;28;20044;-74
2023/01/29 08:41:56;;;;;;;88.45;32.70;;;4.40;99.90;;;;;;5107481;28;20047;-74
2023/01/29 08:44:22;;;;;;;91.10;32.88;;;4.50;99.90;;;;;;5072127;28;20052;-74
2023/01/29 08:46:47;;;;;;;97.80;34.58;;;4.50;99.90;;;;;;5071807;28;20056;-74
2023/01/29 08:49:16;;;;;;;86.88;31.27;;;4.40;99.90;;;;;;5072839;28;20484;-74
2023/01/29 08:51:41;;;;;;;92.10;33.17;;;4.50;99.90;;;;;;5072018;28;20052;-73
2023/01/29 08:54:07;;;;;;;83.47;32.58;;;4.40;99.90;;;;;;5071915;28;20052;-73
2023/01/29 08:56:32;;;;;;;96.93;35.42;;;4.50;99.90;;;;;;5071517;28;20041;-74
2023/01/29 08:58:58;;;;;;;92.35;33.92;;;4.50;99.90;;;;;;5071552;28;20484;-74
2023/01/29 09:01:24;;;;;;;92.00;34.65;;;4.40;99.90;;;;;;5071688;28;20040;-74
2023/01/29 09:03:51;;;;;;;83.25;30.85;;;4.50;99.90;;;;;;5071843;28;20052;-74
2023/01/29 09:06:16;;;;;;;77.38;31.45;;;4.40;99.90;;;;;;5071629;28;20175;-74
2023/01/29 09:08:42;;;;;;;94.05;32.00;;;4.50;99.90;;;;;;5071768;28;20128;-74
2023/01/29 09:11:08;;;;;;;92.95;33.90;;;4.60;99.90;;;;;;5071571;28;20411;-74
2023/01/29 09:13:33;;;;;;;89.97;33.17;;;4.60;99.90;;;;;;5071847;28;20047;-73
2023/01/29 09:16:00;;;;;;;88.80;31.80;;;4.40;99.90;;;;;;5071838;28;20614;-73
2023/01/29 09:18:27;;;;;;;85.10;32.30;;;4.50;99.90;;;;;;5071455;28;20051;-74
2023/01/29 09:20:55;;;;;;;87.47;32.70;;;4.60;99.90;;;;;;5071715;28;20483;-74
2023/01/29 09:23:21;;;;;;;85.68;30.75;;;4.70;99.90;;;;;;5071090;28;20045;-74
2023/01/29 09:25:50;;;;;;;82.90;31.15;;;4.60;99.90;;;;;;5071472;28;20057;-74
2023/01/29 09:28:18;;;;;;;96.15;33.40;;;4.70;99.90;;;;;;5073338;28;20058;-73
2023/01/29 09:30:47;;;;;;;84.57;32.40;;;4.60;99.90;;;;;;5075201;28;20048;-73
2023/01/29 09:33:12;;;;;;;89.50;32.35;;;4.50;99.90;;;;;;5076409;28;20049;-73
2023/01/29 09:35:42;;;;;;;78.80;29.35;;;4.70;99.90;;;;;;5075311;28;20102;-73
2023/01/29 09:38:09;;;;;;;83.90;31.95;;;4.60;99.90;;;;;;5074990;28;20041;-73
2023/01/29 09:40:46;;;;;;;88.40;33.47;;;4.70;99.90;;;;;;5074996;28;20484;-74
2023/01/29 09:43:26;;;;;;;86.00;31.17;;;4.60;99.90;;;;;;5075006;28;20049;-74
2023/01/29 09:45:57;;;;;;;83.50;32.88;;;4.70;99.90;;;;;;5074709;28;20131;-74
2023/01/29 09:48:27;;;;;;;95.53;34.08;;;4.80;99.90;;;;;;5075058;28;20037;-74
2023/01/29 09:50:56;;;;;;;82.45;29.70;;;4.80;99.90;;;;;;5074850;28;20048;-73
2023/01/29 09:53:53;;;;;;;75.65;28.80;;;4.60;99.90;;;;;;5074962;28;20486;-74
2023/01/29 09:56:27;;;;;;;73.32;27.40;;;4.80;99.90;;;;;;5075888;28;20053;-74
2023/01/29 09:58:57;;;;;;;76.32;29.55;;;4.80;99.90;;;;;;5074832;28;20040;-74
2023/01/29 10:01:39;;;;;;;72.35;28.08;;;4.70;99.90;;;;;;5074616;28;20052;-74
2023/01/29 10:04:05;;;;;;;77.25;31.65;;;4.70;99.90;;;;;;5074705;28;20078;-74
2023/01/29 10:07:04;;;;;;;72.32;28.65;;;4.70;99.90;;;;;;5074482;28;20047;-74
2023/01/29 10:09:59;;;;;;;83.13;30.13;;;4.80;99.90;;;;;;5074343;28;20053;-74
2023/01/29 10:12:47;;;;;;;74.43;29.98;;;4.70;99.90;;;;;;5074772;28;20072;-75
2023/01/29 10:15:20;;;;;;;79.63;31.92;;;4.90;99.90;;;;;;5074388;28;20044;-74
2023/01/29 10:17:58;;;;;;;87.43;30.42;;;4.70;99.90;;;;;;5074323;28;20127;-74
2023/01/29 10:20:53;;;;;;;80.00;30.05;;;4.60;99.90;;;;;;5074241;28;20053;-74
2023/01/29 10:23:33;;;;;;;77.07;28.98;;;4.80;99.90;;;;;;5021844;28;20111;-74
2023/01/29 10:25:59;;;;;;;72.82;28.10;;;4.70;99.90;;;;;;5074156;28;20059;-73
2023/01/29 10:28:47;;;;;;;78.90;29.92;;;4.70;99.90;;;;;;5075270;28;20044;-74
2023/01/29 10:31:19;;;;;;;74.47;29.30;;;4.90;99.90;;;;;;5073824;28;20049;-74
2023/01/29 10:33:50;;;;;;;75.67;27.47;;;4.90;99.90;;;;;;5075688;28;20123;-74
2023/01/29 10:36:25;;;;;;;73.30;27.70;;;4.90;99.90;;;;;;5074037;28;20056;-74
2023/01/29 10:38:50;;;;;;;70.20;27.67;;;5.00;99.90;;;;;;5073847;28;20102;-74
2023/01/29 10:41:34;;;;;;;70.10;26.98;;;5.00;99.90;;;;;;5074140;28;20045;-74
2023/01/29 10:44:12;;;;;;;67.57;25.05;;;4.90;99.90;;;;;;5073758;28;20056;-74
2023/01/29 10:46:38;;;;;;;63.38;23.33;;;4.90;99.90;;;;;;5073942;28;20569;-74
2023/01/29 10:49:42;;;;;;;64.55;24.58;;;5.00;99.90;;;;;;5073695;28;20076;-74
2023/01/29 10:52:14;;;;;;;64.65;24.40;;;5.00;99.90;;;;;;5073712;28;20044;-74
2023/01/29 10:54:54;;;;;;;67.40;24.50;;;5.00;99.90;;;;;;5074037;28;20040;-74
2023/01/29 10:57:45;;;;;;;66.32;24.08;;;5.00;99.90;;;;;;5073821;28;20056;-74
2023/01/29 11:00:29;;;;;;;58.05;21.98;;;5.00;99.90;;;;;;5073323;28;20461;-74
2023/01/29 11:03:12;;;;;;;57.20;22.55;;;5.10;99.90;;;;;;5073700;28;20040;-74
2023/01/29 11:05:55;;;;;;;55.38;20.60;;;5.10;99.90;;;;;;5073431;28;20044;-74
2023/01/29 11:08:27;;;;;;;52.08;19.77;;;5.00;99.90;;;;;;5073602;28;20510;-74
2023/01/29 11:11:08;;;;;;;51.05;18.20;;;5.00;99.90;;;;;;5073087;28;20040;-74
2023/01/29 11:13:46;;;;;;;47.13;18.98;;;5.20;99.90;;;;;;5073292;28;20483;-74
2023/01/29 11:16:12;;;;;;;46.90;16.98;;;5.20;99.90;;;;;;5073588;28;20045;-74
2023/01/29 11:18:50;;;;;;;47.25;18.17;;;5.10;99.90;;;;;;5073102;28;20048;-74
2023/01/29 11:21:15;;;;;;;46.25;18.10;;;5.10;99.90;;;;;;5073115;28;20052;-74
2023/01/29 11:23:41;;;;;;;40.95;17.77;;;5.30;99.90;;;;;;5073017;28;20036;-74
2023/01/29 11:26:11;;;;;;;42.00;15.68;;;5.30;99.90;;;;;;5073295;28;20452;-74
2023/01/29 11:28:55;;;;;;;43.97;18.13;;;5.30;99.90;;;;;;5072763;28;20065;-74
2023/01/29 11:31:26;;;;;;;45.70;16.60;;;5.30;99.90;;;;;;5072980;28;20499;-74
2023/01/29 11:34:01;;;;;;;42.53;15.68;;;5.30;99.90;;;;;;5072672;28;20079;-73
2023/01/29 11:36:33;;;;;;;48.20;17.35;;;5.40;99.90;;;;;;5072810;28;20464;-73
2023/01/29 11:39:21;;;;;;;37.17;14.98;;;5.50;99.90;;;;;;5106703;28;20052;-73
2023/01/29 11:42:01;;;;;;;36.47;14.70;;;5.40;99.90;;;;;;5072829;28;20040;-73
2023/01/29 11:44:40;;;;;;;41.58;15.45;;;5.50;99.90;;;;;;5072455;28;20462;-75
2023/01/29 11:47:22;;;;;;;41.13;15.30;;;5.50;99.90;;;;;;5073011;28;20051;-74
2023/01/29 11:50:01;;;;;;;40.03;14.63;;;5.50;99.90;;;;;;5072059;28;20440;-74
2023/01/29 11:52:37;;;;;;;37.47;14.52;;;5.50;99.90;;;;;;5073003;28;20051;-74
2023/01/29 11:55:12;;;;;;;45.38;16.50;;;5.40;99.90;;;;;;5072928;28;20076;-74
2023/01/29 11:57:42;;;;;;;36.45;14.23;;;5.50;99.90;;;;;;5072953;28;20040;-74
2023/01/29 12:00:28;;;;;;;38.72;15.52;;;5.60;99.90;;;;;;5072907;28;20072;-74
2023/01/29 12:03:21;;;;;;;39.08;14.45;;;5.60;99.90;;;;;;5072577;28;20048;-74
2023/01/29 12:06:01;;;;;;;37.78;14.18;;;5.60;99.90;;;;;;5072750;28;20056;-74
2023/01/29 12:08:34;;;;;;;37.22;13.93;;;5.60;99.90;;;;;;5072802;28;20094;-74
2023/01/29 12:11:11;;;;;;;39.60;14.57;;;5.50;99.90;;;;;;5072482;28;20049;-74
2023/01/29 12:13:39;;;;;;;33.08;12.23;;;5.60;99.90;;;;;;5072431;28;20045;-75
2023/01/29 12:16:10;;;;;;;30.80;11.85;;;5.60;99.90;;;;;;5072597;28;20403;-74
2023/01/29 12:18:41;;;;;;;32.42;11.93;;;5.50;99.90;;;;;;5072399;28;20047;-74
2023/01/29 12:21:17;;;;;;;34.42;12.02;;;5.60;99.90;;;;;;5072407;28;20052;-74
2023/01/29 12:24:01;;;;;;;33.08;11.95;;;5.60;99.90;;;;;;5072370;28;20425;-75
2023/01/29 12:26:43;;;;;;;29.00;11.70;;;5.60;99.90;;;;;;5072264;28;20044;-74
2023/01/29 12:29:18;;;;;;;30.98;12.35;;;5.70;99.90;;;;;;5071988;28;20060;-74
2023/01/29 12:32:02;;;;;;;34.75;12.25;;;5.80;99.90;;;;;;5072248;28;20044;-75
2023/01/29 12:35:11;;;;;;;33.00;12.45;;;5.70;99.90;;;;;;5072518;28;20472;-74
2023/01/29 12:37:44;;;;;;;29.13;10.88;;;5.70;99.90;;;;;;5025190;28;20109;-75
2023/01/29 12:40:23;;;;;;;27.10;10.75;;;5.70;99.90;;;;;;5072167;28;20041;-74
2023/01/29 12:42:54;;;;;;;34.10;11.02;;;5.70;99.90;;;;;;5072308;28;20048;-74
2023/01/29 12:45:25;;;;;;;29.42;11.48;;;5.70;99.90;;;;;;5072233;28;20040;-74
2023/01/29 12:47:58;;;;;;;29.10;11.35;;;5.80;99.90;;;;;;5072100;28;20037;-74
2023/01/29 12:50:28;;;;;;;26.67;11.55;;;5.80;99.90;;;;;;5072118;28;20052;-74
2023/01/29 12:53:13;;;;;;;27.30;10.63;;;5.90;99.90;;;;;;5072041;28;20045;-75
2023/01/29 12:55:46;;;;;;;28.80;11.13;;;5.80;99.90;;;;;;5072070;28;20044;-74
2023/01/29 12:58:22;;;;;;;27.35;10.23;;;5.90;99.90;;;;;;5073346;28;20496;-75
2023/01/29 13:00:53;;;;;;;26.48;9.80;;;5.90;99.90;;;;;;5071928;28;20124;-75
2023/01/29 13:03:39;;;;;;;26.70;9.98;;;5.90;99.90;;;;;;5076013;28;20072;-74
2023/01/29 13:06:10;;;;;;;30.45;10.85;;;5.90;99.90;;;;;;5075895;28;20503;-75
2023/01/29 13:08:41;;;;;;;24.65;9.88;;;5.90;99.90;;;;;;5076162;28;20048;-75
2023/01/29 13:11:15;;;;;;;27.83;9.63;;;6.00;99.90;;;;;;5075867;28;20491;-74
2023/01/29 13:14:01;;;;;;;24.85;10.68;;;5.90;99.90;;;;;;5076070;28;20059;-74
2023/01/29 13:16:34;;;;;;;32.75;12.20;;;5.80;99.90;;;;;;5075800;28;20511;-75
2023/01/29 13:19:13;;;;;;;37.97;12.85;;;5.90;99.90;;;;;;5075690;28;20048;-75
2023/01/29 13:21:42;;;;;;;35.15;12.80;;;5.90;99.90;;;;;;5075679;28;20040;-74
2023/01/29 13:24:18;;;;;;;33.55;13.45;;;5.80;99.90;;;;;;5075852;28;20190;-74
2023/01/29 13:26:45;;;;;;;41.47;15.65;;;5.90;99.90;;;;;;5075545;28;20606;-75
2023/01/29 13:29:24;;;;;;;33.05;11.38;;;5.90;99.90;;;;;;5075186;28;20088;-75
2023/01/29 13:31:51;;;;;;;23.70;9.00;;;6.00;99.90;;;;;;5075740;28;20044;-74
2023/01/29 13:34:30;;;;;;;23.92;9.93;;;5.90;99.90;;;;;;5076840;28;20047;-75
2023/01/29 13:37:17;;;;;;;32.10;11.02;;;5.90;99.90;;;;;;5075552;28;20381;-74
2023/01/29 13:39:50;;;;;;;25.90;10.70;;;6.00;99.90;;;;;;5075334;28;20048;-74
2023/01/29 13:42:22;;;;;;;35.78;14.27;;;6.00;99.90;;;;;;5076723;28;20550;-75